Time;durP1;ratioP1;P1;durP2;ratioP2;P2;SDS_P1;SDS_P2;PMS_P1;PMS_P2;Temp;Humidity;BMP_temperature;BMP_pressure;BME280_temperature;BME280_humidity;BME280_pressure;Samples;Min_cycle;Max_cycle;Signal;HPM_P1;HPM_P2
2021/11/14 00:00:51;;;;;;;25.67;15.52;;;;;;;13.01;88.00;100632.22;4972288;28;20050;-76
2021/11/14 00:03:39;;;;;;;20.98;14.00;;;;;;;12.99;88.10;100638.03;4964730;28;20673;-77
2021/11/14 00:06:24;;;;;;;24.77;15.35;;;;;;;12.97;88.00;100634.00;4958594;28;20413;-77
2021/11/14 00:09:11;;;;;;;18.20;12.50;;;;;;;12.99;87.79;100627.09;4966558;28;20031;-77
2021/11/14 00:11:56;;;;;;;21.80;15.00;;;;;;;13.01;87.93;100627.56;4959013;28;20046;-78
2021/11/14 00:14:41;;;;;;;;;;;;;;;13.00;87.93;100623.25;4954623;28;20050;-78
2021/11/14 00:17:26;;;;;;;17.67;10.15;;;;;;;12.97;88.25;100612.97;4953768;28;20419;-78
2021/11/14 00:20:12;;;;;;;;;;;;;;;13.00;88.08;100608.81;4998199;23;20050;-62
2021/11/14 00:22:57;;;;;;;21.75;13.48;;;;;;;12.98;88.28;100608.31;4984170;28;19917;-62
2021/11/14 00:25:42;;;;;;;;;;;;;;;13.00;88.02;100608.81;4993371;28;20042;-62
2021/11/14 00:28:27;;;;;;;19.60;12.65;;;;;;;12.98;88.00;100603.66;4973122;28;19913;-62
2021/11/14 00:31:22;;;;;;;21.25;14.23;;;;;;;12.99;88.25;100604.47;4984850;28;20054;-62
2021/11/14 00:34:07;;;;;;;26.95;10.95;;;;;;;13.00;88.34;100595.16;4994004;28;20042;-62
2021/11/14 00:36:53;;;;;;;19.83;13.60;;;;;;;12.99;88.25;100594.34;4992613;28;20046;-62
2021/11/14 00:39:38;;;;;;;19.10;13.02;;;;;;;12.99;88.33;100594.34;4993921;28;20042;-62
2021/11/14 00:42:23;;;;;;;15.30;9.82;;;;;;;13.01;88.50;100596.72;4993893;28;20053;-62
2021/11/14 00:45:09;;;;;;;19.55;12.95;;;;;;;13.01;88.46;100596.72;4993665;28;20042;-62
2021/11/14 00:47:55;;;;;;;24.35;13.50;;;;;;;12.99;88.23;100599.00;4989897;28;20046;-62
2021/11/14 00:50:43;;;;;;;19.42;12.70;;;;;;;12.99;88.02;100599.81;4970686;28;20046;-62
2021/11/14 00:53:29;;;;;;;16.83;11.32;;;;;;;13.01;87.90;100596.72;4979740;28;20524;-62
2021/11/14 00:56:14;;;;;;;21.70;14.23;;;;;;;13.00;88.11;100597.88;4973906;28;20046;-63
2021/11/14 00:58:59;;;;;;;;;;;;;;;13.00;87.85;100595.97;4969301;28;20038;-62
2021/11/14 01:01:43;;;;;;;16.55;11.15;;;;;;;12.99;88.26;100597.09;4991775;28;19913;-62
2021/11/14 01:04:28;;;;;;;13.18;8.95;;;;;;;12.99;88.13;100591.63;4993694;28;20042;-63
2021/11/14 01:07:13;;;;;;;19.50;11.82;;;;;;;13.01;88.30;100583.06;4993158;28;20046;-63
2021/11/14 01:09:58;;;;;;;;;;;;;;;13.02;87.99;100590.13;4991491;28;20483;-62
2021/11/14 01:12:43;;;;;;;18.20;11.52;;;;;;;13.02;88.11;100581.94;4993264;28;19917;-62
2021/11/14 01:15:29;;;;;;;21.08;12.45;;;;;;;13.03;87.78;100589.81;4993049;28;20419;-63
2021/11/14 01:18:16;;;;;;;15.93;10.43;;;;;;;13.03;88.05;100583.56;4992602;28;20050;-62
2021/11/14 01:21:05;;;;;;;15.40;10.98;;;;;;;13.02;88.03;100582.75;4993145;28;20065;-62
2021/11/14 01:23:50;;;;;;;19.20;12.30;;;;;;;13.01;88.09;100580.34;4997409;28;20042;-62
2021/11/14 01:26:35;;;;;;;16.77;11.93;;;;;;;13.01;87.93;100574.88;4992707;28;20046;-62
2021/11/14 01:29:20;;;;;;;14.18;8.15;;;;;;;13.01;87.88;100581.16;4991475;28;20034;-62
2021/11/14 01:32:05;;;;;;;12.73;8.38;;;;;;;13.02;87.69;100581.94;4992939;28;20072;-62
2021/11/14 01:34:50;;;;;;;;;;;;;;;13.02;87.83;100581.94;4993415;28;20503;-62
2021/11/14 01:37:35;;;;;;;14.70;8.70;;;;;;;13.01;88.03;100589.34;4992801;28;19918;-63
2021/11/14 01:40:25;;;;;;;;;;;;;;;13.05;88.12;100589.50;4984664;28;20042;-63
2021/11/14 01:43:14;;;;;;;15.48;10.65;;;;;;;13.04;87.71;100582.44;4992939;28;20299;-62
2021/11/14 01:45:59;;;;;;;18.70;10.88;;;;;;;13.04;87.84;100579.69;4992475;28;20035;-62
2021/11/14 01:48:46;;;;;;;16.08;10.05;;;;;;;13.04;87.90;100576.97;4992695;28;20050;-62
2021/11/14 01:51:30;;;;;;;16.58;11.15;;;;;;;13.05;87.77;100576.66;4983767;28;20042;-63
2021/11/14 01:54:19;;;;;;;17.25;11.25;;;;;;;13.03;87.62;100578.09;4992628;28;20045;-63
2021/11/14 01:57:04;;;;;;;24.55;12.68;;;;;;;13.03;87.36;100572.63;4992436;28;20046;-63
2021/11/14 01:59:51;;;;;;;22.75;14.15;;;;;;;13.04;87.39;100571.50;4992449;28;20038;-63
2021/11/14 02:02:36;;;;;;;17.77;10.45;;;;;;;13.02;87.48;100571.84;4973215;28;20047;-63
2021/11/14 02:05:23;;;;;;;14.73;9.70;;;;;;;13.05;87.78;100575.84;4973067;28;20054;-63
2021/11/14 02:08:09;;;;;;;16.27;9.85;;;;;;;13.05;87.69;100570.38;4973263;28;20035;-63
2021/11/14 02:10:54;;;;;;;19.58;12.85;;;;;;;13.05;87.68;100573.91;4963265;28;20083;-63
2021/11/14 02:13:39;;;;;;;;;;;;;;;13.04;87.84;100568.78;4999471;28;20418;-63
2021/11/14 02:16:27;;;;;;;14.05;9.57;;;;;;;13.05;87.98;100565.72;4979231;28;19917;-63
2021/11/14 02:19:12;;;;;;;21.08;14.95;;;;;;;13.03;87.72;100559.78;4979543;28;20055;-63
2021/11/14 02:21:57;;;;;;;11.73;8.20;;;;;;;13.03;87.67;100557.06;4984601;28;20519;-63
2021/11/14 02:24:42;;;;;;;11.18;8.75;;;;;;;13.03;87.37;100556.25;4997604;28;20410;-63
2021/11/14 02:27:28;;;;;;;19.10;13.65;;;;;;;13.03;87.53;100550.78;4984194;28;20495;-63
2021/11/14 02:30:14;;;;;;;13.35;7.60;;;;;;;13.02;87.64;100549.19;4998988;28;20038;-63
2021/11/14 02:32:59;;;;;;;14.43;9.77;;;;;;;13.04;87.55;100552.41;4996150;28;20042;-63
2021/11/14 02:35:49;;;;;;;11.95;7.30;;;;;;;13.07;87.33;100551.72;4998776;28;20047;-63
2021/11/14 02:38:34;;;;;;;17.27;12.18;;;;;;;13.06;87.36;100544.66;4998849;28;20050;-63
2021/11/14 02:41:21;;;;;;;18.80;12.65;;;;;;;13.03;86.92;100543.41;4998528;28;20034;-63
2021/11/14 02:44:05;;;;;;;12.50;9.25;;;;;;;13.04;87.29;100538.75;4985533;28;20050;-63
2021/11/14 02:46:50;;;;;;;;;;;;;;;13.03;87.72;100542.59;4999370;28;20069;-63
2021/11/14 02:49:35;;;;;;;16.00;9.02;;;;;;;13.00;87.68;100543.28;4998880;28;19914;-63
2021/11/14 02:52:20;;;;;;;8.32;5.90;;;;;;;13.01;88.18;100544.88;4993086;28;20514;-63
2021/11/14 02:55:07;;;;;;;11.27;6.68;;;;;;;13.02;87.84;100550.00;4990627;28;20439;-63
2021/11/14 02:57:54;;;;;;;13.00;8.18;;;;;;;13.01;88.13;100542.94;4998618;28;20038;-63
2021/11/14 03:00:57;;;;;;;13.77;8.98;;;;;;;13.03;88.00;100545.34;4998896;28;20506;-63
2021/11/14 03:03:45;;;;;;;12.73;8.65;;;;;;;13.02;88.45;100546.47;4997975;28;20045;-63
2021/11/14 03:06:31;;;;;;;13.95;8.98;;;;;;;13.02;88.56;100544.53;4997814;28;20442;-62
2021/11/14 03:09:15;;;;;;;12.70;8.88;;;;;;;13.01;88.88;100536.69;4998383;28;20045;-63
2021/11/14 03:12:00;;;;;;;9.32;6.50;;;;;;;13.02;88.87;100546.47;4998673;28;20520;-63
2021/11/14 03:14:45;;;;;;;12.82;6.85;;;;;;;13.02;88.76;100546.47;4996075;28;20045;-63
2021/11/14 03:17:31;;;;;;;15.07;8.75;;;;;;;13.02;88.89;100541.81;4978774;28;20054;-63
2021/11/14 03:20:16;;;;;;;11.95;8.15;;;;;;;13.03;88.77;100545.34;4965738;28;20038;-63
2021/11/14 03:23:01;;;;;;;10.82;6.97;;;;;;;13.02;88.76;100541.81;4976466;28;20054;-63
2021/11/14 03:25:47;;;;;;;9.15;6.30;;;;;;;13.04;88.91;100538.75;4995158;28;20113;-63
2021/11/14 03:28:32;;;;;;;11.90;7.68;;;;;;;13.03;88.73;100539.88;4975886;28;20050;-63
2021/11/14 03:31:18;;;;;;;13.35;8.32;;;;;;;12.99;88.99;100531.56;4975976;28;20042;-63
2021/11/14 03:34:03;;;;;;;11.20;7.38;;;;;;;13.01;88.89;100528.50;4980557;28;20051;-63
2021/11/14 03:36:48;;;;;;;17.40;6.78;;;;;;;13.01;89.06;100536.69;4980633;28;20054;-63
2021/11/14 03:39:33;;;;;;;;;;;;;;;13.03;88.95;100534.41;4989743;28;20523;-63
2021/11/14 03:42:17;;;;;;;10.27;6.70;;;;;;;13.02;89.20;100527.34;4995204;28;19913;-62
2021/11/14 03:45:03;;;;;;;;;;;;;;;13.02;88.77;100528.16;4985167;28;20050;-63
2021/11/14 03:47:48;;;;;;;11.32;7.57;;;;;;;13.00;88.96;100529.66;4961048;28;20295;-64
2021/11/14 03:50:34;;;;;;;11.10;7.15;;;;;;;13.00;88.75;100524.19;4975496;28;20057;-64
2021/11/14 03:53:20;;;;;;;7.57;5.25;;;;;;;13.02;88.40;100528.16;4975401;28;20479;-64
2021/11/14 03:56:05;;;;;;;10.77;7.47;;;;;;;13.02;88.24;100521.91;4991869;28;20073;-64
2021/11/14 03:58:51;;;;;;;12.43;7.88;;;;;;;13.02;88.39;100521.91;4986787;28;20527;-64
2021/11/14 04:01:35;;;;;;;8.68;6.47;;;;;;;13.00;88.31;100519.53;4994748;28;20042;-63
2021/11/14 04:04:20;;;;;;;;;;;;;;;13.03;88.33;100527.03;4994392;28;20045;-64
2021/11/14 04:07:05;;;;;;;8.55;6.10;;;;;;;13.01;88.51;100525.75;4994108;28;19915;-63
2021/11/14 04:09:50;;;;;;;8.93;6.82;;;;;;;13.00;88.44;100522.25;4994438;28;20049;-64
2021/11/14 04:12:37;;;;;;;8.23;5.68;;;;;;;13.01;88.70;100526.56;4994687;28;20069;-64
2021/11/14 04:15:23;;;;;;;9.13;6.60;;;;;;;13.02;88.63;100521.91;4993047;28;20058;-64
2021/11/14 04:18:09;;;;;;;10.40;7.10;;;;;;;13.02;88.51;100532.81;4994134;28;20118;-64
2021/11/14 04:20:54;;;;;;;8.95;6.38;;;;;;;13.00;88.48;100526.91;4994287;28;20499;-64
2021/11/14 04:23:39;;;;;;;;;;;;;;;13.02;88.48;100530.88;4994810;28;20053;-64
2021/11/14 04:26:23;;;;;;;8.15;5.80;;;;;;;13.03;88.61;100537.16;4986834;28;19918;-65
2021/11/14 04:29:08;;;;;;;;;;;;;;;13.04;88.56;100536.03;4994679;28;20045;-64
2021/11/14 04:31:53;;;;;;;7.70;5.63;;;;;;;13.02;88.71;100535.53;4994055;28;19914;-64
2021/11/14 04:34:39;;;;;;;9.75;6.63;;;;;;;13.02;88.45;100538.28;4993179;28;20049;-63
2021/11/14 04:37:24;;;;;;;10.25;6.00;;;;;;;13.01;88.46;100533.94;4986708;28;20050;-63
2021/11/14 04:40:09;;;;;;;4.93;4.07;;;;;;;13.00;88.42;100530.44;4994395;28;20046;-63
2021/11/14 04:42:55;;;;;;;8.38;5.88;;;;;;;13.00;88.43;100526.91;4979258;28;20065;-63
2021/11/14 04:45:41;;;;;;;7.63;5.82;;;;;;;13.01;88.38;100531.22;4992611;28;20054;-62
2021/11/14 04:48:26;;;;;;;7.63;5.40;;;;;;;13.00;88.06;100535.09;4974420;28;20049;-62
2021/11/14 04:51:10;;;;;;;6.35;4.53;;;;;;;13.01;88.06;100542.13;4974411;28;20058;-62
2021/11/14 04:53:55;;;;;;;8.95;5.78;;;;;;;13.00;87.93;100537.84;4974778;28;20045;-63
2021/11/14 04:56:40;;;;;;;10.80;5.50;;;;;;;13.00;88.00;100537.84;4979634;28;20604;-63
2021/11/14 04:59:25;;;;;;;;;;;;;;;13.00;87.83;100530.44;4991741;28;20054;-62
2021/11/14 05:02:09;;;;;;;7.55;5.20;;;;;;;12.99;87.72;100528.84;4993258;28;20387;-63
2021/11/14 05:04:54;;;;;;;5.38;4.22;;;;;;;13.00;87.51;100533.19;4993498;28;20061;-65
2021/11/14 05:07:39;;;;;;;;;;;;;;;13.03;87.19;100531.69;4993138;28;20046;-63
2021/11/14 05:10:24;;;;;;;8.40;6.13;;;;;;;12.98;86.80;100526.44;4978830;28;20555;-63
2021/11/14 05:13:09;;;;;;;6.20;3.60;;;;;;;12.96;86.67;100520.50;4993584;28;20057;-63
2021/11/14 05:15:53;;;;;;;6.45;4.18;;;;;;;13.00;86.86;100526.91;4993243;28;20514;-63
2021/11/14 05:18:39;;;;;;;;;;;;;;;13.00;86.69;100530.44;4988290;28;20519;-62
2021/11/14 05:21:24;;;;;;;6.03;4.47;;;;;;;12.98;86.68;100532.69;4993332;28;19914;-62
2021/11/14 05:24:09;;;;;;;6.60;3.83;;;;;;;12.99;87.04;100533.50;4992972;28;20049;-62
2021/11/14 05:26:54;;;;;;;6.32;5.22;;;;;;;12.99;87.18;100531.56;4991927;28;20507;-62
2021/11/14 05:29:39;;;;;;;8.52;4.82;;;;;;;12.97;87.19;100536.56;4992990;28;20053;-62
2021/11/14 05:32:24;;;;;;;;;;;;;;;12.99;87.09;100528.03;4993593;28;20530;-62
2021/11/14 05:35:09;;;;;;;7.10;4.45;;;;;;;13.00;87.05;100529.66;4999344;28;20383;-62
2021/11/14 05:37:53;;;;;;;;;;;;;;;13.01;87.32;100525.75;4992645;28;20050;-62
2021/11/14 05:40:38;;;;;;;6.05;4.35;;;;;;;13.00;87.56;100526.91;4992946;28;20374;-62
2021/11/14 05:43:23;;;;;;;6.07;4.50;;;;;;;12.99;87.33;100522.59;4987421;28;20049;-62
2021/11/14 05:46:08;;;;;;;5.30;4.00;;;;;;;12.98;87.22;100534.63;4994985;28;20053;-62
2021/11/14 05:48:53;;;;;;;;;;;;;;;12.99;87.15;100538.97;4990834;28;20046;-62
2021/11/14 05:51:38;;;;;;;5.05;3.92;;;;;;;12.97;87.76;100538.47;4992162;28;19913;-62
2021/11/14 05:54:23;;;;;;;5.13;4.28;;;;;;;12.96;87.44;100550.53;4973298;28;20054;-62
2021/11/14 05:57:08;;;;;;;;;;;;;;;12.96;86.97;100545.06;4973421;28;20049;-62
2021/11/14 06:02:47;;;;;;;4.90;3.53;;;;;;;12.95;87.14;100548.97;4992581;28;20053;-63
2021/11/14 06:05:38;;;;;;;6.70;4.95;;;;;;;12.94;87.13;100550.09;4986354;28;20045;-62
2021/11/14 06:08:23;;;;;;;6.50;4.30;;;;;;;12.93;86.98;100549.28;4970896;28;20049;-62
2021/11/14 06:11:08;;;;;;;4.82;3.13;;;;;;;12.93;86.92;100548.47;4977656;28;20065;-61
2021/11/14 06:13:53;;;;;;;;;;;;;;;12.93;87.09;100557.47;4968838;28;20053;-62
2021/11/14 06:16:38;;;;;;;11.10;4.10;;;;;;;12.94;87.06;100552.81;4991832;28;20298;-62
2021/11/14 06:19:22;;;;;;;;;;;;;;;12.96;87.29;100559.53;5005368;23;20045;-79
2021/11/14 06:22:07;;;;;;;169.93;26.90;;;;;;;12.91;87.29;100556.19;4973918;28;20379;-79
2021/11/14 06:24:51;;;;;;;253.90;42.83;;;;;;;12.92;87.43;100552.34;4998994;28;20420;-78
2021/11/14 06:27:37;;;;;;;;;;;;;;;12.94;87.38;100553.63;4983954;28;20042;-79
2021/11/14 06:30:22;;;;;;;51.08;15.57;;;;;;;12.92;86.99;100555.06;4984837;28;19913;-77
2021/11/14 06:33:06;;;;;;;;;;;;;;;12.94;87.40;100555.53;4971908;28;20050;-77
2021/11/14 06:35:51;;;;;;;107.50;21.05;;;;;;;12.93;87.26;100568.38;4983185;28;20384;-77
2021/11/14 06:38:36;;;;;;;;;;;;;;;12.93;87.20;100571.13;4984514;28;20038;-78
2021/11/14 06:41:21;;;;;;;69.30;13.52;;;;;;;12.92;87.29;100561.31;4993751;28;19914;-78
2021/11/14 06:44:05;;;;;;;45.63;8.65;;;;;;;12.91;86.86;100567.91;4986764;28;20042;-78
2021/11/14 06:46:50;;;;;;;54.00;10.23;;;;;;;12.90;87.00;100574.50;4981778;28;20053;-78
2021/11/14 06:49:35;;;;;;;33.80;10.15;;;;;;;12.93;87.07;100573.03;4966714;28;20038;-76
2021/11/14 06:52:20;;;;;;;29.52;8.57;;;;;;;12.92;87.02;100574.97;4998189;28;20050;-78
2021/11/14 06:55:06;;;;;;;41.42;8.43;;;;;;;12.94;87.14;100580.09;4999942;28;20039;-77
2021/11/14 06:57:50;;;;;;;26.48;7.38;;;;;;;12.93;87.07;100586.69;4992117;28;20050;-78
2021/11/14 07:00:36;;;;;;;23.75;4.90;;;;;;;12.88;87.11;100582.25;4994598;28;20054;-78
2021/11/14 07:03:20;;;;;;;29.38;7.75;;;;;;;12.92;86.82;100596.81;4984302;28;20049;-78
2021/11/14 07:06:05;;;;;;;20.90;7.40;;;;;;;12.94;86.78;100601.94;4996794;28;20038;-77
2021/11/14 07:08:50;;;;;;;30.98;7.07;;;;;;;12.93;86.65;100603.06;4995959;28;20038;-77
2021/11/14 07:11:35;;;;;;;;;;;;;;;12.94;86.63;100607.41;5001743;28;20425;-77
2021/11/14 07:14:25;;;;;;;18.20;7.40;;;;;;;12.94;86.70;100615.59;4996349;28;19913;-78
2021/11/14 07:17:10;;;;;;;18.08;5.82;;;;;;;12.94;86.41;100608.19;4987049;28;20038;-78
2021/11/14 07:19:54;;;;;;;18.30;5.10;;;;;;;12.95;86.10;100603.53;4994541;28;20520;-78
2021/11/14 07:22:39;;;;;;;15.65;4.50;;;;;;;12.96;86.37;100616.84;4988754;28;20045;-78
2021/11/14 07:25:24;;;;;;;8.77;4.25;;;;;;;12.97;86.03;100625.81;4986650;28;20050;-79
2021/11/14 07:28:10;;;;;;;16.58;5.38;;;;;;;12.97;86.23;100612.97;5007972;28;20559;-79
2021/11/14 07:30:55;;;;;;;12.65;6.88;;;;;;;12.96;86.01;100616.03;5001995;28;20056;-79
2021/11/14 07:33:40;;;;;;;11.98;4.88;;;;;;;12.99;85.76;100618.13;4993825;28;20042;-80
2021/11/14 07:36:25;;;;;;;11.57;5.30;;;;;;;12.99;85.44;100620.84;4994308;28;20046;-78
2021/11/14 07:39:10;;;;;;;;;;;;;;;12.98;85.40;100619.25;4991484;28;20496;-78
2021/11/14 07:41:54;;;;;;;12.15;4.30;;;;;;;12.97;85.65;100634.81;4989164;28;19913;-79
2021/11/14 07:44:39;;;;;;;;;;;;;;;12.98;85.48;100624.69;5008401;28;20042;-78
2021/11/14 07:47:24;;;;;;;9.90;4.30;;;;;;;12.97;85.56;100634.00;4978190;28;19914;-78
2021/11/14 07:50:10;;;;;;;11.32;4.85;;;;;;;12.99;85.28;100631.75;4997249;28;20049;-79
2021/11/14 07:52:57;;;;;;;8.38;4.10;;;;;;;12.98;85.22;100635.63;4994815;28;20046;-77
2021/11/14 07:55:41;;;;;;;11.93;4.80;;;;;;;12.98;84.91;100628.22;4972195;28;20050;-78
2021/11/14 07:58:26;;;;;;;8.32;3.92;;;;;;;12.99;84.85;100643.47;4981079;28;20050;-79
2021/11/14 08:01:11;;;;;;;6.95;2.88;;;;;;;12.99;84.57;100645.41;4967780;28;20045;-78
2021/11/14 08:03:56;;;;;;;;;;;;;;;13.00;84.33;100644.28;4973062;28;20049;-78
2021/11/14 08:06:41;;;;;;;7.00;3.42;;;;;;;12.99;84.50;100645.41;4987206;28;19913;-77
2021/11/14 08:09:25;;;;;;;;;;;;;;;13.00;84.25;100649.75;5005748;28;20527;-79
2021/11/14 08:12:10;;;;;;;6.63;3.45;;;;;;;12.97;84.37;100645.72;4995865;28;19913;-77
2021/11/14 08:14:55;;;;;;;;;;;;;;;13.02;84.33;100647.47;5003211;28;20049;-81
2021/11/14 08:17:40;;;;;;;13.77;4.35;;;;;;;13.01;84.37;100648.59;4992966;28;20284;-80
2021/11/14 08:20:25;;;;;;;10.10;3.28;;;;;;;13.03;84.16;100649.06;4981786;28;20428;-77
2021/11/14 08:23:10;;;;;;;6.63;3.65;;;;;;;13.04;84.02;100653.41;4974740;28;20042;-79
2021/11/14 08:25:57;;;;;;;6.38;2.33;;;;;;;13.06;84.12;100654.66;4993468;28;20079;-79
2021/11/14 08:28:42;;;;;;;11.60;4.93;;;;;;;13.02;84.16;100655.66;4991512;28;20084;-79
2021/11/14 08:31:27;;;;;;;5.30;2.78;;;;;;;13.03;84.09;100660.00;5000824;28;20053;-79
2021/11/14 08:34:11;;;;;;;8.07;3.90;;;;;;;13.01;84.19;100659.50;4994083;28;20040;-79
2021/11/14 08:36:56;;;;;;;8.80;3.47;;;;;;;13.03;84.54;100657.25;4999397;28;20053;-78
2021/11/14 08:39:42;;;;;;;7.10;3.70;;;;;;;13.05;84.28;100657.75;4986125;28;20045;-78
2021/11/14 08:42:26;;;;;;;8.05;2.38;;;;;;;13.06;83.90;100667.50;5000668;28;20049;-78
2021/11/14 08:45:11;;;;;;;7.25;3.53;;;;;;;13.07;84.07;100660.91;5012675;28;20049;-77
2021/11/14 08:47:57;;;;;;;6.00;3.00;;;;;;;13.06;83.99;100665.56;5005539;28;20519;-77
2021/11/14 08:50:42;;;;;;;4.75;2.95;;;;;;;13.06;83.85;100664.78;4986827;28;20424;-77
2021/11/14 08:53:27;;;;;;;;;;;;;;;13.10;83.65;100668.47;4999703;28;20065;-77
2021/11/14 08:56:11;;;;;;;4.63;2.60;;;;;;;12.95;84.12;100666.31;4986412;28;19921;-78
2021/11/14 08:58:56;;;;;;;5.05;2.08;;;;;;;12.91;84.76;100662.63;4997680;28;20050;-78
2021/11/14 09:01:41;;;;;;;3.60;2.17;;;;;;;12.94;84.93;100670.19;4985452;28;20049;-79
2021/11/14 09:04:27;;;;;;;7.97;3.60;;;;;;;13.08;84.46;100671.50;4981795;28;20524;-78
2021/11/14 09:07:11;;;;;;;4.28;2.63;;;;;;;13.15;83.56;100674.56;4980006;28;20057;-78
2021/11/14 09:09:57;;;;;;;7.93;2.97;;;;;;;13.22;84.12;100679.47;5000138;28;20525;-77
2021/11/14 09:12:42;;;;;;;14.02;3.05;;;;;;;13.30;83.65;100672.34;4980591;28;20476;-78
2021/11/14 09:15:29;;;;;;;;;;;;;;;13.23;83.62;100673.66;4987889;28;20429;-78
2021/11/14 09:18:16;;;;;;;5.60;2.15;;;;;;;13.23;84.09;100681.88;4991366;28;19917;-77
2021/11/14 09:21:01;;;;;;;7.40;2.53;;;;;;;13.20;83.76;100676.28;4975538;28;20057;-77
2021/11/14 09:23:45;;;;;;;3.17;1.80;;;;;;;13.12;84.16;100680.66;4986329;28;20420;-78
2021/11/14 09:26:30;;;;;;;15.55;2.35;;;;;;;13.23;84.00;100684.59;4984495;28;20057;-77
2021/11/14 09:29:15;;;;;;;4.03;3.47;;;;;;;13.18;83.89;100682.06;4989721;28;20046;-79
2021/11/14 09:32:00;;;;;;;;;;;;;;;13.26;83.79;100686.66;4985847;28;20528;-80
2021/11/14 09:34:45;;;;;;;13.32;2.25;;;;;;;13.25;83.49;100696.00;4992758;28;20331;-79
2021/11/14 09:37:30;;;;;;;;;;;;;;;13.23;83.55;100690.06;4981374;28;20056;-79
2021/11/14 09:40:14;;;;;;;7.50;2.42;;;;;;;13.24;83.98;100690.84;4996188;28;19918;-79
2021/11/14 09:43:01;;;;;;;6.78;2.05;;;;;;;13.23;83.51;100700.19;4993395;28;20045;-79
2021/11/14 09:45:46;;;;;;;3.38;2.05;;;;;;;13.23;84.10;100694.72;4992550;28;20049;-80
2021/11/14 09:48:31;;;;;;;;;;;;;;;13.27;83.73;100693.72;4984239;28;20049;-78
2021/11/14 09:51:16;;;;;;;9.65;2.13;;;;;;;13.25;83.97;100689.72;4973967;28;19913;-78
2021/11/14 09:54:01;;;;;;;7.18;2.28;;;;;;;13.21;84.11;100696.97;4969361;28;20058;-78
2021/11/14 09:56:46;;;;;;;;;;;;;;;13.31;84.30;100699.28;4993001;28;20057;-77
2021/11/14 09:59:31;;;;;;;4.75;1.90;;;;;;;13.28;84.17;100698.03;4987594;28;19918;-78
2021/11/14 10:02:17;;;;;;;4.25;2.33;;;;;;;13.29;84.20;100690.66;4979311;28;20044;-80
2021/11/14 10:05:03;;;;;;;7.40;3.63;;;;;;;13.26;84.46;100703.03;5010328;28;20518;-79
2021/11/14 10:08:03;;;;;;;4.38;2.35;;;;;;;13.36;84.28;100690.13;4990209;28;20053;-81
2021/11/14 10:10:54;;;;;;;15.27;3.03;;;;;;;13.39;84.02;100695.72;4979468;28;20049;-80
2021/11/14 10:13:44;;;;;;;19.30;3.22;;;;;;;13.38;84.12;100698.78;4987054;28;20406;-79
2021/11/14 10:16:29;;;;;;;23.70;3.72;;;;;;;13.40;84.31;100702.78;5008177;28;20408;-77
2021/11/14 10:19:14;;;;;;;45.20;6.03;;;;;;;13.38;84.33;100698.78;4996782;28;20527;-79
2021/11/14 10:22:01;;;;;;;138.80;8.73;;;;;;;13.45;83.94;100694.38;4987204;28;20053;-79
2021/11/14 10:24:46;;;;;;;41.95;3.22;;;;;;;13.45;83.46;100702.56;4983706;28;20037;-78
2021/11/14 10:27:31;;;;;;;31.05;3.45;;;;;;;13.44;82.91;100697.44;5003886;28;20065;-79
2021/11/14 10:30:16;;;;;;;;;;;;;;;13.46;83.72;100698.69;4999905;28;20041;-80
2021/11/14 10:33:04;;;;;;;39.63;5.50;;;;;;;13.53;83.43;100698.97;4989653;28;19913;-80
2021/11/14 10:35:52;;;;;;;64.65;7.28;;;;;;;13.54;83.53;100694.28;4998817;28;20049;-80
2021/11/14 10:38:40;;;;;;;62.83;8.05;;;;;;;13.55;83.22;100688.50;4985897;28;20050;-78
2021/11/14 10:41:25;;;;;;;46.67;5.25;;;;;;;13.56;82.76;100692.03;5009864;28;20053;-82
2021/11/14 10:44:12;;;;;;;30.98;3.42;;;;;;;13.53;82.82;100696.22;4989818;28;20061;-79
2021/11/14 10:47:07;;;;;;;14.77;3.80;;;;;;;13.49;82.71;100695.31;5002293;28;20458;-79
2021/11/14 10:50:02;;;;;;;41.40;4.07;;;;;;;13.48;82.75;100688.22;4998747;28;20042;-77
2021/11/14 10:52:57;;;;;;;28.43;2.57;;;;;;;13.53;82.25;100692.69;4994427;28;20050;-78
2021/11/14 10:55:48;;;;;;;42.03;4.20;;;;;;;13.49;82.19;100684.38;5003619;28;20284;-80
2021/11/14 10:58:33;;;;;;;21.67;3.60;;;;;;;13.53;82.32;100692.69;4985230;28;20448;-78
2021/11/14 11:01:18;;;;;;;79.60;8.63;;;;;;;13.54;81.75;100700.56;4979615;28;20050;-79
2021/11/14 11:04:08;;;;;;;65.32;6.47;;;;;;;13.61;81.72;100700.78;4992985;28;20120;-79
2021/11/14 11:06:53;;;;;;;67.95;5.78;;;;;;;13.54;81.46;100694.28;4992143;28;20042;-79
2021/11/14 11:09:42;;;;;;;;;;;;;;;13.58;81.26;100698.75;4989493;28;20046;-78
2021/11/14 11:12:28;;;;;;;87.95;8.88;;;;;;;13.67;81.68;100693.19;4983621;28;19926;-79
2021/11/14 11:15:12;;;;;;;34.83;3.65;;;;;;;13.54;81.37;100700.56;4992255;28;20046;-77
2021/11/14 11:17:57;;;;;;;;;;;;;;;13.62;81.17;100698.88;5010207;28;20677;-79
2021/11/14 11:20:45;;;;;;;52.67;4.07;;;;;;;13.53;81.22;100704.41;5002001;28;19913;-78
2021/11/14 11:23:32;;;;;;;30.45;4.13;;;;;;;13.57;81.27;100708.06;5000647;28;20050;-77
2021/11/14 11:26:18;;;;;;;27.90;4.55;;;;;;;13.59;81.73;100705.00;4995941;28;20523;-79
2021/11/14 11:29:15;;;;;;;33.95;4.70;;;;;;;13.64;82.43;100708.34;4975732;28;20056;-78
2021/11/14 11:32:01;;;;;;;44.00;5.05;;;;;;;13.52;82.80;100705.53;4995947;28;20511;-79
2021/11/14 11:34:46;;;;;;;11.15;2.65;;;;;;;13.44;83.00;100714.63;4975160;28;20050;-79
2021/11/14 11:37:32;;;;;;;9.38;1.75;;;;;;;13.39;82.81;100711.31;4990076;28;20060;-79
2021/11/14 11:40:17;;;;;;;49.63;5.25;;;;;;;13.58;83.74;100715.16;5001480;28;20515;-78
2021/11/14 11:43:03;;;;;;;3.78;1.35;;;;;;;13.57;83.18;100708.06;4998034;28;20045;-78
2021/11/14 11:45:49;;;;;;;29.33;3.58;;;;;;;13.48;83.21;100707.34;4994517;28;20061;-78
2021/11/14 11:48:47;;;;;;;23.08;3.00;;;;;;;13.43;83.55;100699.38;5001303;28;20052;-78
2021/11/14 11:51:41;;;;;;;17.45;2.47;;;;;;;13.41;83.48;100696.16;5003169;28;20049;-78
2021/11/14 11:54:31;;;;;;;10.55;2.33;;;;;;;13.43;83.29;100701.28;4987055;28;20125;-78
2021/11/14 11:57:19;;;;;;;11.52;2.30;;;;;;;13.43;83.31;100702.09;4994835;28;20500;-78
2021/11/14 12:00:05;;;;;;;13.23;2.58;;;;;;;13.39;83.54;100698.44;4981449;28;20042;-78
2021/11/14 12:03:23;;;;;;;6.38;1.50;;;;;;;13.43;83.21;100704.03;4996826;28;20045;-78
2021/11/14 12:06:21;;;;;;;2.92;1.20;;;;;;;13.46;81.82;100695.97;4982373;28;20049;-78
2021/11/14 12:09:15;;;;;;;14.85;2.63;;;;;;;13.54;80.88;100697.84;4984387;28;20054;-78
2021/11/14 12:12:00;;;;;;;3.78;1.27;;;;;;;13.42;80.78;100700.50;4982789;28;20417;-78
2021/11/14 12:14:45;;;;;;;;;;;;;;;13.45;80.81;100705.31;4981398;28;20057;-79
2021/11/14 12:17:29;;;;;;;7.50;2.13;;;;;;;13.46;80.96;100695.19;4969658;28;19914;-78
2021/11/14 12:20:15;;;;;;;;;;;;;;;13.48;80.94;100707.34;4985413;28;20052;-78
2021/11/14 12:23:17;;;;;;;7.20;1.92;;;;;;;13.49;81.19;100706.22;5005096;28;19913;-79
2021/11/14 12:26:07;;;;;;;10.25;2.15;;;;;;;13.41;81.40;100707.09;4988303;28;20049;-79
2021/11/14 12:28:54;;;;;;;5.63;2.35;;;;;;;13.44;81.22;100714.63;4979800;28;20501;-78
2021/11/14 12:31:52;;;;;;;3.55;2.08;;;;;;;13.51;81.44;100708.63;4984834;28;20042;-79
2021/11/14 12:34:38;;;;;;;10.57;2.90;;;;;;;13.54;81.17;100707.94;4987383;28;20049;-77
2021/11/14 12:37:23;;;;;;;4.20;2.33;;;;;;;13.57;81.87;100697.16;5005274;28;20046;-78
2021/11/14 12:40:13;;;;;;;2.65;1.83;;;;;;;13.51;80.37;100693.00;4998105;28;20045;-79
2021/11/14 12:43:15;;;;;;;10.32;3.03;;;;;;;13.53;81.04;100703.63;4993050;28;20053;-79
2021/11/14 12:46:21;;;;;;;8.30;3.28;;;;;;;13.58;80.44;100695.22;4995111;28;20527;-80
2021/11/14 12:49:12;;;;;;;5.80;3.03;;;;;;;13.53;81.51;100679.03;5014898;28;20048;-78
2021/11/14 12:51:57;;;;;;;6.05;2.80;;;;;;;13.44;80.94;100683.78;4976053;28;20053;-79
2021/11/14 12:54:53;;;;;;;4.57;2.50;;;;;;;13.46;81.05;100682.28;4998387;28;20053;-78
2021/11/14 12:57:51;;;;;;;9.13;3.33;;;;;;;13.50;80.94;100687.91;5008041;28;20045;-80
2021/11/14 13:00:40;;;;;;;5.43;3.20;;;;;;;13.52;81.22;100685.63;5001920;28;20539;-80